Time;durP1;ratioP1;P1;durP2;ratioP2;P2;SDS_P1;SDS_P2;PMS_P1;PMS_P2;Temp;Humidity;BMP_temperature;BMP_pressure;BME280_temperature;BME280_humidity;BME280_pressure;Samples;Min_cycle;Max_cycle;Signal;HPM_P1;HPM_P2
2021/06/20 00:01:28;;;;;;;16.43;13.77;;;25.30;1.00;;;;;;5076539;28;20446;-78
2021/06/20 00:03:54;;;;;;;16.47;15.23;;;25.30;1.00;;;;;;5076124;28;20584;-78
2021/06/20 00:06:27;;;;;;;16.50;15.10;;;25.30;1.00;;;;;;5073102;28;20453;-78
2021/06/20 00:08:55;;;;;;;16.57;15.00;;;25.20;1.00;;;;;;5075536;28;20444;-79
2021/06/20 00:11:22;;;;;;;16.20;15.00;;;25.20;1.00;;;;;;5079643;28;20560;-78
2021/06/20 00:13:49;;;;;;;15.83;14.53;;;25.20;1.00;;;;;;5073467;28;20445;-79
2021/06/20 00:16:16;;;;;;;16.33;14.83;;;25.10;1.00;;;;;;5058760;28;20438;-79
2021/06/20 00:18:45;;;;;;;16.93;15.30;;;25.10;1.00;;;;;;5080976;28;20433;-80
2021/06/20 00:21:13;;;;;;;16.23;14.80;;;25.00;1.00;;;;;;5082455;28;20414;-79
2021/06/20 00:23:39;;;;;;;16.23;14.83;;;25.00;1.00;;;;;;5088164;28;20453;-79
2021/06/20 00:26:06;;;;;;;16.57;15.27;;;24.90;1.00;;;;;;5097311;28;20458;-79
2021/06/20 00:28:33;;;;;;;15.70;14.20;;;24.90;1.00;;;;;;5080842;28;21097;-79
2021/06/20 00:31:00;;;;;;;17.13;15.90;;;24.80;1.00;;;;;;5082142;28;20789;-79
2021/06/20 00:33:27;;;;;;;19.40;17.47;;;24.70;1.00;;;;;;5083172;28;20444;-79
2021/06/20 00:35:55;;;;;;;17.13;15.53;;;24.70;1.00;;;;;;5071145;28;20439;-79
2021/06/20 00:38:22;;;;;;;16.97;15.70;;;24.70;1.00;;;;;;5075164;28;20466;-79
2021/06/20 00:40:48;;;;;;;16.50;15.20;;;24.70;1.00;;;;;;5076186;28;20957;-79
2021/06/20 00:43:15;;;;;;;20.33;16.00;;;24.60;1.00;;;;;;5069930;28;20458;-79
2021/06/20 00:45:42;;;;;;;17.10;15.23;;;24.60;1.00;;;;;;5074614;28;20496;-79
2021/06/20 00:48:09;;;;;;;16.33;15.00;;;24.60;1.00;;;;;;5070791;28;20455;-79
2021/06/20 00:50:36;;;;;;;17.13;15.40;;;24.50;1.00;;;;;;5073188;28;20462;-79
2021/06/20 00:53:05;;;;;;;16.57;15.17;;;24.50;1.00;;;;;;5057143;28;20481;-79
2021/06/20 00:55:34;;;;;;;16.00;14.60;;;24.50;1.00;;;;;;5069510;28;20793;-79
2021/06/20 00:58:02;;;;;;;16.73;15.40;;;24.50;1.00;;;;;;5069842;28;20462;-79
2021/06/20 01:00:30;;;;;;;16.27;15.07;;;24.40;1.00;;;;;;5071988;28;20460;-79
2021/06/20 01:02:57;;;;;;;18.63;16.93;;;24.40;1.00;;;;;;5071569;28;20529;-80
2021/06/20 01:05:24;;;;;;;17.50;16.10;;;24.40;1.00;;;;;;5083833;28;21061;-79
2021/06/20 01:07:51;;;;;;;17.73;16.13;;;24.40;1.00;;;;;;5056555;28;20573;-79
2021/06/20 01:10:21;;;;;;;19.80;17.73;;;24.40;1.00;;;;;;5068093;28;20551;-79
2021/06/20 01:12:49;;;;;;;17.57;15.87;;;24.30;1.00;;;;;;5069527;28;21464;-80
2021/06/20 01:15:17;;;;;;;19.30;16.37;;;24.30;1.00;;;;;;5071787;28;20459;-79
2021/06/20 01:17:44;;;;;;;16.50;15.30;;;24.30;1.00;;;;;;5076125;28;20478;-79
2021/06/20 01:20:13;;;;;;;18.80;17.30;;;24.30;1.00;;;;;;5074268;28;20456;-79
2021/06/20 01:22:43;;;;;;;17.53;16.20;;;24.20;1.00;;;;;;5072744;28;20475;-79
2021/06/20 01:25:12;;;;;;;18.50;17.00;;;24.20;1.00;;;;;;5074952;28;20455;-79
2021/06/20 01:27:42;;;;;;;18.53;16.83;;;24.20;1.00;;;;;;5071340;28;20487;-78
2021/06/20 01:30:12;;;;;;;20.57;18.67;;;24.20;1.00;;;;;;5052496;28;20622;-78
2021/06/20 01:32:38;;;;;;;18.80;17.20;;;24.20;1.00;;;;;;5070419;28;20492;-78
2021/06/20 01:35:06;;;;;;;19.47;17.53;;;24.20;1.00;;;;;;5069564;28;20473;-78
2021/06/20 01:37:33;;;;;;;18.40;17.00;;;24.10;1.00;;;;;;5072654;28;20461;-78
2021/06/20 01:40:01;;;;;;;19.10;17.50;;;24.10;1.00;;;;;;5070383;28;20937;-79
2021/06/20 01:42:27;;;;;;;18.57;16.97;;;24.10;1.00;;;;;;5071948;28;20466;-78
2021/06/20 01:44:57;;;;;;;19.27;17.83;;;24.10;1.00;;;;;;5054703;28;20961;-78
2021/06/20 01:47:24;;;;;;;20.10;18.47;;;24.00;1.00;;;;;;5071754;28;20454;-79
2021/06/20 01:49:52;;;;;;;21.10;18.93;;;24.00;1.00;;;;;;5069005;28;20475;-79
2021/06/20 01:52:19;;;;;;;19.80;18.20;;;24.00;1.00;;;;;;5069370;28;20454;-79
2021/06/20 01:54:51;;;;;;;22.50;20.47;;;24.00;1.00;;;;;;5072155;28;20447;-78
2021/06/20 01:57:22;;;;;;;22.73;20.53;;;23.90;1.00;;;;;;5071231;28;20468;-79
2021/06/20 01:59:50;;;;;;;22.97;20.47;;;23.90;1.00;;;;;;5069335;28;20518;-78
2021/06/20 02:02:16;;;;;;;22.17;20.17;;;23.90;1.00;;;;;;5055883;28;20525;-79
2021/06/20 02:04:44;;;;;;;22.20;20.20;;;23.90;1.00;;;;;;5074163;28;20440;-78
2021/06/20 02:07:11;;;;;;;22.10;20.10;;;23.90;1.00;;;;;;5057286;28;20475;-79
2021/06/20 02:09:39;;;;;;;21.93;19.83;;;23.80;1.00;;;;;;5074801;28;21149;-79
2021/06/20 02:12:06;;;;;;;23.77;21.37;;;23.80;1.00;;;;;;5069460;28;20462;-79
2021/06/20 02:14:36;;;;;;;21.40;19.53;;;23.70;1.00;;;;;;5070190;28;20464;-79
2021/06/20 02:17:14;;;;;;;21.80;20.00;;;23.60;1.00;;;;;;5070019;28;20470;-78
2021/06/20 02:19:40;;;;;;;24.17;21.93;;;23.60;1.00;;;;;;5054574;28;20438;-78
2021/06/20 02:22:07;;;;;;;23.40;21.00;;;23.60;1.00;;;;;;5069175;28;20489;-79
2021/06/20 02:24:33;;;;;;;21.47;19.87;;;23.50;1.00;;;;;;5068970;28;20458;-79
2021/06/20 02:27:00;;;;;;;22.83;20.90;;;23.60;1.00;;;;;;5070882;28;20459;-79
2021/06/20 02:29:27;;;;;;;22.63;20.70;;;23.50;1.00;;;;;;5073226;28;20446;-79
2021/06/20 02:31:55;;;;;;;20.57;18.97;;;23.50;1.00;;;;;;5071525;28;20426;-79
2021/06/20 02:34:21;;;;;;;21.97;20.27;;;23.50;1.00;;;;;;5070322;28;20438;-79
2021/06/20 02:36:48;;;;;;;21.33;19.47;;;23.50;1.00;;;;;;5073124;28;20581;-79
2021/06/20 02:39:14;;;;;;;22.10;20.20;;;23.40;1.00;;;;;;5071484;28;20450;-79
2021/06/20 02:41:42;;;;;;;21.73;19.93;;;23.40;1.00;;;;;;5054438;28;20955;-79
2021/06/20 02:44:09;;;;;;;22.30;20.40;;;23.40;1.00;;;;;;5075490;28;20422;-78
2021/06/20 02:46:36;;;;;;;21.83;20.03;;;23.40;1.00;;;;;;5071099;28;20456;-80
2021/06/20 02:49:04;;;;;;;22.80;20.90;;;23.40;1.00;;;;;;5073810;28;20426;-80
2021/06/20 02:51:30;;;;;;;24.17;21.97;;;23.30;1.00;;;;;;5066830;28;20457;-79
2021/06/20 02:53:57;;;;;;;23.40;21.27;;;23.30;1.00;;;;;;5069587;28;20458;-79
2021/06/20 02:56:24;;;;;;;22.70;20.70;;;23.30;1.00;;;;;;5071627;28;20489;-79
2021/06/20 02:58:51;;;;;;;24.10;22.10;;;23.30;1.00;;;;;;5070492;28;20446;-79
2021/06/20 03:01:17;;;;;;;23.93;21.83;;;23.30;1.00;;;;;;5052325;28;20500;-79
2021/06/20 03:03:44;;;;;;;23.30;21.40;;;23.30;1.00;;;;;;5071649;28;20509;-78
2021/06/20 03:06:13;;;;;;;23.00;21.03;;;23.30;1.00;;;;;;5069109;28;20510;-78
2021/06/20 03:08:39;;;;;;;22.47;20.63;;;23.20;1.00;;;;;;5069344;28;20543;-79
2021/06/20 03:11:06;;;;;;;23.20;21.40;;;23.20;1.00;;;;;;5068616;28;21845;-78
2021/06/20 03:13:33;;;;;;;24.10;22.00;;;23.20;1.00;;;;;;5072995;28;21592;-79
2021/06/20 03:15:59;;;;;;;24.57;22.33;;;23.20;1.00;;;;;;5068102;28;21095;-79
2021/06/20 03:18:26;;;;;;;24.67;22.67;;;23.20;1.00;;;;;;5071576;28;20409;-79
2021/06/20 03:20:53;;;;;;;24.17;21.97;;;23.20;1.00;;;;;;5069658;28;21303;-79
2021/06/20 03:23:21;;;;;;;25.67;23.60;;;23.20;1.00;;;;;;5069643;28;21683;-78
2021/06/20 03:25:47;;;;;;;25.07;22.57;;;23.20;1.00;;;;;;5070503;28;20472;-79
2021/06/20 03:28:14;;;;;;;25.67;23.33;;;23.20;1.00;;;;;;5071311;28;20567;-78
2021/06/20 03:30:42;;;;;;;25.90;23.40;;;23.20;1.00;;;;;;5068395;28;20508;-79
2021/06/20 03:33:09;;;;;;;28.70;26.23;;;23.20;1.00;;;;;;5067441;28;20469;-79
2021/06/20 03:35:36;;;;;;;23.97;21.90;;;23.20;1.00;;;;;;5072265;28;20540;-78
2021/06/20 03:38:03;;;;;;;24.10;22.10;;;23.20;1.00;;;;;;5082872;28;20409;-78
2021/06/20 03:40:31;;;;;;;23.17;21.30;;;23.20;1.00;;;;;;5087100;28;20407;-78
2021/06/20 03:42:57;;;;;;;24.10;22.10;;;23.20;1.00;;;;;;5070244;28;20401;-79
2021/06/20 03:45:25;;;;;;;24.40;22.60;;;23.20;1.00;;;;;;5073372;28;20474;-79
2021/06/20 03:47:52;;;;;;;24.47;22.37;;;23.20;1.00;;;;;;5070854;28;20450;-79
2021/06/20 03:50:19;;;;;;;24.17;22.27;;;23.20;1.00;;;;;;5070540;28;20465;-79
2021/06/20 03:52:46;;;;;;;24.70;22.80;;;23.20;1.00;;;;;;5068043;28;20465;-79
2021/06/20 03:55:13;;;;;;;24.97;22.73;;;23.20;1.00;;;;;;5072279;28;20457;-79
2021/06/20 03:57:41;;;;;;;24.67;22.77;;;23.20;1.00;;;;;;5071100;28;20426;-78
2021/06/20 04:00:10;;;;;;;24.30;22.50;;;23.20;1.00;;;;;;5068776;28;20499;-79
2021/06/20 04:02:37;;;;;;;26.67;24.47;;;23.30;1.00;;;;;;5071650;28;20971;-79
2021/06/20 04:05:04;;;;;;;23.07;21.37;;;23.30;1.00;;;;;;5068359;28;20446;-79
2021/06/20 04:07:31;;;;;;;23.27;21.53;;;23.30;1.00;;;;;;5071574;28;20516;-79
2021/06/20 04:09:58;;;;;;;25.03;23.00;;;23.30;1.00;;;;;;5069230;28;20443;-79
2021/06/20 04:12:24;;;;;;;25.00;22.73;;;23.40;1.00;;;;;;5071108;28;20454;-79
2021/06/20 04:14:52;;;;;;;24.60;22.70;;;23.40;1.00;;;;;;5071895;28;20463;-79
2021/06/20 04:17:21;;;;;;;22.23;20.60;;;23.50;1.00;;;;;;5068455;28;20495;-79
2021/06/20 04:19:48;;;;;;;24.00;22.00;;;23.50;1.00;;;;;;5072140;28;20447;-79
2021/06/20 04:22:14;;;;;;;23.57;21.73;;;23.60;1.00;;;;;;5052809;28;20402;-78
2021/06/20 04:24:41;;;;;;;25.27;23.47;;;23.60;1.00;;;;;;5070223;28;20448;-78
2021/06/20 04:27:08;;;;;;;23.37;21.53;;;23.60;1.00;;;;;;5069693;28;20469;-78
2021/06/20 04:29:35;;;;;;;24.20;22.03;;;23.60;1.00;;;;;;5065790;28;20681;-78
2021/06/20 04:32:04;;;;;;;23.10;21.17;;;23.70;1.00;;;;;;5066901;28;21418;-78
2021/06/20 04:34:30;;;;;;;25.13;23.07;;;23.70;1.00;;;;;;5068107;28;20574;-78
2021/06/20 04:36:57;;;;;;;23.70;21.80;;;23.80;1.00;;;;;;5068643;28;20544;-79
2021/06/20 04:39:24;;;;;;;25.40;23.40;;;23.80;1.00;;;;;;5071852;28;20444;-78
2021/06/20 04:41:51;;;;;;;24.03;22.23;;;23.80;1.00;;;;;;5075410;28;20481;-79
2021/06/20 04:46:59;;;;;;;25.17;23.37;;;23.90;1.00;;;;;;5069096;28;20438;-80
2021/06/20 04:49:27;;;;;;;24.77;22.73;;;24.00;1.00;;;;;;5071190;28;20463;-80
2021/06/20 04:51:54;;;;;;;26.00;23.67;;;24.00;1.00;;;;;;5070454;28;20470;-80
2021/06/20 04:54:20;;;;;;;24.90;22.77;;;24.10;1.00;;;;;;5072793;28;20447;-80
2021/06/20 04:56:47;;;;;;;26.80;24.80;;;24.20;1.00;;;;;;5072805;28;20450;-79
2021/06/20 04:59:14;;;;;;;26.97;24.87;;;24.30;1.00;;;;;;5072140;28;20910;-78
2021/06/20 05:01:41;;;;;;;27.17;24.77;;;24.40;1.00;;;;;;5077645;28;20977;-79
2021/06/20 05:04:09;;;;;;;25.60;23.67;;;24.50;1.00;;;;;;5070616;28;20554;-79
2021/06/20 05:06:37;;;;;;;27.40;25.37;;;24.60;1.00;;;;;;5068314;28;20935;-79
2021/06/20 05:09:05;;;;;;;27.10;25.07;;;24.70;1.00;;;;;;5076615;28;20453;-78
2021/06/20 05:11:32;;;;;;;27.37;25.47;;;24.70;1.00;;;;;;5075939;28;20564;-79
2021/06/20 05:13:58;;;;;;;29.27;26.77;;;24.70;1.00;;;;;;5078658;28;20454;-80
2021/06/20 05:16:25;;;;;;;27.17;25.17;;;24.80;1.00;;;;;;5071109;28;20528;-80
2021/06/20 05:18:52;;;;;;;28.27;26.27;;;24.90;1.00;;;;;;5069771;28;20463;-80
2021/06/20 05:21:18;;;;;;;28.63;26.43;;;25.00;1.00;;;;;;5079171;28;20484;-79
2021/06/20 05:23:46;;;;;;;28.90;26.80;;;25.10;1.00;;;;;;5068864;28;20459;-80
2021/06/20 05:26:14;;;;;;;29.00;26.83;;;25.10;1.00;;;;;;5077737;28;20451;-80
2021/06/20 05:28:40;;;;;;;28.20;26.10;;;25.20;1.00;;;;;;5070832;28;20457;-79
2021/06/20 05:31:07;;;;;;;30.80;28.37;;;25.30;1.00;;;;;;5070715;28;20474;-79
2021/06/20 05:33:34;;;;;;;30.00;27.50;;;25.40;1.00;;;;;;5074704;28;20498;-78
2021/06/20 05:36:00;;;;;;;28.80;26.70;;;25.30;1.00;;;;;;5071671;28;20457;-78
2021/06/20 05:38:28;;;;;;;30.53;28.30;;;25.40;1.00;;;;;;5070469;28;20435;-78
2021/06/20 05:40:59;;;;;;;28.90;26.70;;;25.60;1.00;;;;;;5073847;28;20457;-79
2021/06/20 05:43:25;;;;;;;29.13;27.10;;;25.60;1.00;;;;;;5073759;28;20452;-78
2021/06/20 05:45:52;;;;;;;30.30;27.90;;;25.70;1.00;;;;;;5074864;28;20449;-79
2021/06/20 05:48:19;;;;;;;29.10;27.00;;;25.80;1.00;;;;;;5075324;28;21018;-79
2021/06/20 05:50:45;;;;;;;30.13;27.73;;;25.90;1.00;;;;;;5074413;28;20459;-79
2021/06/20 05:53:12;;;;;;;29.30;27.20;;;26.00;1.00;;;;;;5070778;28;20540;-79
2021/06/20 05:55:39;;;;;;;29.00;26.80;;;26.10;1.00;;;;;;5072473;28;20541;-79
2021/06/20 05:58:07;;;;;;;29.47;27.33;;;26.30;1.00;;;;;;5070501;28;20460;-80
2021/06/20 06:00:34;;;;;;;29.77;27.50;;;26.30;1.00;;;;;;5077449;28;21513;-79
2021/06/20 06:03:01;;;;;;;30.10;27.67;;;26.30;1.00;;;;;;5072979;28;20457;-79
2021/06/20 06:05:28;;;;;;;32.77;30.10;;;26.20;1.00;;;;;;5073190;28;20469;-79
2021/06/20 06:07:55;;;;;;;33.07;30.40;;;26.30;1.00;;;;;;5079338;28;20413;-79
2021/06/20 06:10:25;;;;;;;30.23;27.83;;;26.30;1.00;;;;;;5073640;28;20459;-79
2021/06/20 06:12:52;;;;;;;30.57;28.27;;;26.40;1.00;;;;;;5059127;28;21059;-79
2021/06/20 06:15:20;;;;;;;31.70;29.50;;;26.60;1.00;;;;;;5075475;28;20446;-79
2021/06/20 06:17:49;;;;;;;30.30;27.93;;;26.70;1.00;;;;;;5075346;28;20474;-79
2021/06/20 06:20:16;;;;;;;30.23;27.90;;;26.90;1.00;;;;;;5074803;28;20947;-80
2021/06/20 06:22:43;;;;;;;30.13;27.93;;;27.00;1.00;;;;;;5078209;28;20709;-80
2021/06/20 06:25:11;;;;;;;31.67;29.40;;;27.10;1.00;;;;;;5073361;28;20477;-80
2021/06/20 06:27:38;;;;;;;32.50;30.10;;;27.20;1.00;;;;;;5071393;28;20448;-80
2021/06/20 06:30:06;;;;;;;32.03;29.73;;;27.30;1.00;;;;;;5076014;28;20470;-78
2021/06/20 06:32:34;;;;;;;32.70;30.40;;;27.40;1.00;;;;;;5073160;28;20460;-79
2021/06/20 06:35:00;;;;;;;33.77;31.40;;;27.50;1.00;;;;;;5074992;28;21653;-79
2021/06/20 06:37:27;;;;;;;33.37;30.93;;;27.60;1.00;;;;;;5073558;28;20438;-79
2021/06/20 06:39:54;;;;;;;33.70;31.13;;;27.70;1.00;;;;;;5059727;28;20490;-79
2021/06/20 06:42:25;;;;;;;35.90;33.30;;;27.70;1.00;;;;;;5077210;28;22075;-78
2021/06/20 06:44:52;;;;;;;34.07;31.40;;;27.70;1.00;;;;;;5075751;28;20440;-79
2021/06/20 06:47:20;;;;;;;34.30;31.73;;;27.80;1.00;;;;;;5079385;28;21340;-79
2021/06/20 06:49:48;;;;;;;34.17;31.57;;;27.90;1.00;;;;;;5085618;28;20455;-79
2021/06/20 06:52:15;;;;;;;35.77;33.27;;;27.90;1.00;;;;;;5093677;28;20464;-79
2021/06/20 06:54:50;;;;;;;33.87;31.57;;;28.00;1.00;;;;;;5095217;28;20419;-79
2021/06/20 06:57:17;;;;;;;34.33;31.57;;;28.10;1.00;;;;;;5087280;28;20448;-79
2021/06/20 06:59:44;;;;;;;34.63;31.93;;;28.00;1.00;;;;;;5076939;28;20444;-79
2021/06/20 07:02:11;;;;;;;33.80;31.33;;;28.10;1.00;;;;;;5080169;28;20459;-79
2021/06/20 07:04:37;;;;;;;34.90;32.30;;;28.10;1.00;;;;;;5073486;28;20534;-79
2021/06/20 07:07:05;;;;;;;33.60;31.10;;;28.30;1.00;;;;;;5077509;28;20449;-79
2021/06/20 07:09:32;;;;;;;34.73;32.17;;;28.50;1.00;;;;;;5076491;28;23049;-81
2021/06/20 07:12:00;;;;;;;34.80;32.43;;;28.60;1.00;;;;;;5074292;28;20461;-79
2021/06/20 07:14:27;;;;;;;34.80;32.00;;;28.60;1.00;;;;;;5074666;28;20425;-79
2021/06/20 07:16:54;;;;;;;36.30;33.80;;;28.70;1.00;;;;;;5071812;28;20434;-80
2021/06/20 07:19:21;;;;;;;34.30;31.80;;;28.80;1.00;;;;;;5073309;28;20538;-80
2021/06/20 07:21:47;;;;;;;33.70;31.20;;;28.80;1.00;;;;;;5076507;28;20472;-80
2021/06/20 07:24:17;;;;;;;35.23;32.57;;;28.80;1.00;;;;;;5075908;28;20918;-79
2021/06/20 07:26:43;;;;;;;33.70;31.37;;;28.80;1.00;;;;;;5075789;28;20462;-79
2021/06/20 07:29:10;;;;;;;35.33;32.57;;;28.90;1.00;;;;;;5080959;28;20557;-79
2021/06/20 07:31:37;;;;;;;34.13;31.33;;;29.00;1.00;;;;;;5078830;28;20474;-79
2021/06/20 07:34:03;;;;;;;34.43;32.07;;;29.30;1.00;;;;;;5069886;28;20469;-79
2021/06/20 07:36:30;;;;;;;35.63;33.23;;;29.40;1.00;;;;;;5079729;28;20977;-79
2021/06/20 07:38:58;;;;;;;34.03;31.53;;;29.50;1.00;;;;;;5080009;28;20672;-79
2021/06/20 07:41:27;;;;;;;34.17;31.67;;;29.60;1.00;;;;;;5080610;28;20460;-78
2021/06/20 07:43:54;;;;;;;33.97;31.30;;;29.90;1.00;;;;;;5078243;28;20964;-77
2021/06/20 07:46:20;;;;;;;34.27;31.80;;;30.10;1.00;;;;;;5075395;28;20455;-79
2021/06/20 07:48:47;;;;;;;35.40;32.70;;;30.30;1.00;;;;;;5063072;28;20551;-78
2021/06/20 07:51:13;;;;;;;35.30;32.70;;;30.20;1.00;;;;;;5056726;28;20472;-78
2021/06/20 07:53:40;;;;;;;33.37;31.07;;;30.20;1.00;;;;;;5078210;28;20434;-79
2021/06/20 07:56:07;;;;;;;33.23;31.03;;;30.30;1.00;;;;;;5056040;28;20452;-79
2021/06/20 07:58:35;;;;;;;33.80;31.53;;;30.40;1.00;;;;;;5063022;28;20543;-79
2021/06/20 08:01:02;;;;;;;34.23;31.60;;;30.30;1.00;;;;;;5079921;28;21281;-79
2021/06/20 08:03:31;;;;;;;34.00;31.77;;;30.30;1.00;;;;;;5077163;28;21184;-79
2021/06/20 08:05:58;;;;;;;33.80;31.50;;;30.40;1.00;;;;;;5076552;28;21246;-76
2021/06/20 08:08:24;;;;;;;33.20;30.70;;;30.50;1.00;;;;;;5075873;28;20949;-77
2021/06/20 08:10:51;;;;;;;34.63;32.13;;;30.70;1.00;;;;;;5072112;28;20482;-76
2021/06/20 08:13:18;;;;;;;32.07;29.77;;;30.80;1.00;;;;;;5068452;28;20990;-77
2021/06/20 08:15:46;;;;;;;33.10;30.80;;;30.90;1.00;;;;;;5064749;28;20465;-76
2021/06/20 08:18:12;;;;;;;32.63;30.43;;;31.10;1.00;;;;;;5070286;28;20437;-76
2021/06/20 08:20:39;;;;;;;31.77;29.67;;;31.10;1.00;;;;;;5066765;28;20524;-76
2021/06/20 08:23:06;;;;;;;35.03;32.37;;;31.20;1.00;;;;;;5048417;28;20454;-75
2021/06/20 08:25:32;;;;;;;31.70;29.50;;;31.50;1.00;;;;;;5068670;28;20470;-75
2021/06/20 08:27:59;;;;;;;31.17;29.07;;;31.60;1.00;;;;;;5068895;28;20459;-76
2021/06/20 08:30:26;;;;;;;31.53;29.20;;;31.80;1.00;;;;;;5066467;28;20464;-76
2021/06/20 08:32:54;;;;;;;31.70;29.60;;;32.00;1.00;;;;;;5064769;28;20959;-76
2021/06/20 08:35:21;;;;;;;32.20;29.87;;;32.20;1.00;;;;;;5063789;28;20443;-76
2021/06/20 08:37:48;;;;;;;30.80;28.80;;;32.10;1.00;;;;;;5066269;28;23125;-76
2021/06/20 08:40:15;;;;;;;29.10;27.30;;;32.00;1.00;;;;;;5067413;28;20618;-76
2021/06/20 08:42:42;;;;;;;27.57;25.40;;;32.10;1.00;;;;;;5065814;28;21112;-75
2021/06/20 08:45:10;;;;;;;29.37;27.20;;;32.20;1.00;;;;;;5069711;28;20529;-77
2021/06/20 08:47:37;;;;;;;29.13;27.17;;;31.90;1.00;;;;;;5067117;28;20466;-76
2021/06/20 08:50:06;;;;;;;28.80;26.70;;;31.90;1.00;;;;;;5066951;28;20848;-76
2021/06/20 08:52:33;;;;;;;27.60;25.80;;;31.80;1.00;;;;;;5061961;28;21092;-75
2021/06/20 08:55:03;;;;;;;28.17;26.17;;;32.00;1.00;;;;;;5063911;28;21065;-75
2021/06/20 08:57:32;;;;;;;27.60;25.70;;;32.10;1.00;;;;;;5065384;28;20495;-75
2021/06/20 08:59:59;;;;;;;27.63;25.43;;;32.40;1.00;;;;;;5065410;28;20463;-75
2021/06/20 09:02:27;;;;;;;25.83;24.03;;;32.50;1.00;;;;;;5065280;28;20454;-78
2021/06/20 09:04:58;;;;;;;24.40;22.50;;;32.70;1.00;;;;;;5065528;28;20978;-79
2021/06/20 09:07:37;;;;;;;23.17;21.67;;;32.80;1.00;;;;;;5068916;28;20468;-78
2021/06/20 09:10:16;;;;;;;22.83;21.23;;;33.10;1.00;;;;;;5048105;28;20509;-78
2021/06/20 09:12:45;;;;;;;22.17;20.67;;;33.30;1.00;;;;;;5074902;28;20741;-80
2021/06/20 09:15:13;;;;;;;19.93;18.50;;;33.50;1.00;;;;;;5077623;28;20473;-79
2021/06/20 09:17:40;;;;;;;16.53;15.33;;;33.70;1.00;;;;;;5084559;28;20571;-81
2021/06/20 09:20:08;;;;;;;17.63;16.33;;;33.70;1.00;;;;;;5086669;28;21428;-80
2021/06/20 09:22:36;;;;;;;19.50;18.13;;;33.70;1.00;;;;;;5088271;28;20423;-81
2021/06/20 09:25:06;;;;;;;18.83;17.43;;;33.60;1.00;;;;;;5081363;28;20535;-82
2021/06/20 09:27:33;;;;;;;18.97;17.53;;;33.70;1.00;;;;;;5082342;28;20452;-80
2021/06/20 09:30:11;;;;;;;18.80;17.37;;;33.90;1.00;;;;;;5081619;28;20476;-80
2021/06/20 09:32:40;;;;;;;20.30;18.70;;;34.00;1.00;;;;;;5070228;28;20457;-81
2021/06/20 09:35:08;;;;;;;19.27;17.73;;;34.20;1.00;;;;;;5073848;28;20433;-82
2021/06/20 09:37:37;;;;;;;17.67;16.37;;;34.00;1.00;;;;;;5085352;28;20453;-81
2021/06/20 09:40:15;;;;;;;16.83;15.47;;;34.10;1.00;;;;;;5087675;28;20456;-81
2021/06/20 09:42:42;;;;;;;15.13;13.70;;;34.30;1.00;;;;;;5083369;28;20929;-81
2021/06/20 09:45:10;;;;;;;13.43;12.33;;;34.50;1.00;;;;;;5061579;28;20484;-80
2021/06/20 09:47:41;;;;;;;14.20;12.90;;;35.40;1.00;;;;;;5083503;28;20456;-79
2021/06/20 09:50:10;;;;;;;14.90;13.47;;;36.00;1.00;;;;;;5088251;28;20416;-81
2021/06/20 09:52:38;;;;;;;13.37;12.20;;;36.30;1.00;;;;;;5086614;28;20500;-81
2021/06/20 09:55:10;;;;;;;13.67;12.63;;;36.10;1.00;;;;;;5083033;28;21184;-81
2021/06/20 09:57:41;;;;;;;13.47;12.40;;;35.70;1.00;;;;;;5087181;28;20406;-82
2021/06/20 10:00:10;;;;;;;13.27;12.20;;;36.00;1.00;;;;;;5082253;28;20462;-78
2021/06/20 10:02:39;;;;;;;12.90;12.10;;;36.60;1.00;;;;;;5073226;28;20453;-78
2021/06/20 10:05:07;;;;;;;13.57;12.57;;;36.90;1.00;;;;;;5078214;28;20451;-77
2021/06/20 10:07:33;;;;;;;14.03;12.90;;;37.20;1.00;;;;;;5071321;28;20472;-77
2021/06/20 10:10:04;;;;;;;13.70;12.80;;;37.90;1.00;;;;;;5069721;28;21014;-76
2021/06/20 10:12:30;;;;;;;13.57;12.17;;;38.20;1.00;;;;;;5078733;28;20490;-76
2021/06/20 10:14:58;;;;;;;13.27;12.33;;;38.60;1.00;;;;;;5072116;28;20438;-76
2021/06/20 10:17:29;;;;;;;12.63;11.73;;;38.80;1.00;;;;;;5067339;28;22054;-77
2021/06/20 10:19:58;;;;;;;13.70;12.30;;;39.20;1.00;;;;;;5068881;28;21256;-75
2021/06/20 10:22:34;;;;;;;13.00;12.03;;;40.00;1.00;;;;;;5071399;28;20474;-75
2021/06/20 10:25:04;;;;;;;13.50;12.20;;;40.70;1.00;;;;;;5066326;28;20484;-75
2021/06/20 10:27:32;;;;;;;13.30;12.23;;;41.10;1.00;;;;;;5067656;28;20466;-76
2021/06/20 10:30:01;;;;;;;13.53;12.23;;;40.80;1.00;;;;;;5067336;28;20442;-76
2021/06/20 10:32:35;;;;;;;14.07;12.77;;;40.60;1.00;;;;;;5071404;28;20549;-76
2021/06/20 10:35:04;;;;;;;13.10;12.07;;;40.90;1.00;;;;;;5069374;28;20449;-76
2021/06/20 10:37:34;;;;;;;13.63;12.33;;;40.90;1.00;;;;;;5065808;28;20477;-76
2021/06/20 10:40:01;;;;;;;14.30;12.83;;;41.10;1.00;;;;;;5067695;28;20459;-75
2021/06/20 10:42:38;;;;;;;13.13;11.97;;;41.50;1.00;;;;;;5050043;28;20460;-75
2021/06/20 10:45:07;;;;;;;14.03;12.37;;;41.70;1.00;;;;;;5066854;28;20434;-78
2021/06/20 10:47:36;;;;;;;13.17;12.17;;;41.20;1.00;;;;;;5069529;28;20462;-76
2021/06/20 10:50:05;;;;;;;13.20;12.10;;;41.30;1.00;;;;;;5069788;28;20950;-77
2021/06/20 10:52:32;;;;;;;13.03;12.03;;;41.70;1.00;;;;;;5061831;28;21246;-75
2021/06/20 10:55:14;;;;;;;13.67;12.67;;;41.20;1.00;;;;;;5066262;28;20453;-77
2021/06/20 10:57:48;;;;;;;14.73;13.37;;;41.30;1.00;;;;;;5066738;28;20672;-78
2021/06/20 11:00:27;;;;;;;15.00;13.60;;;40.80;1.00;;;;;;5066902;28;20955;-77
2021/06/20 11:02:55;;;;;;;14.87;13.67;;;41.10;1.00;;;;;;5068158;28;20450;-77
2021/06/20 11:05:24;;;;;;;12.30;11.37;;;41.40;1.00;;;;;;5063241;28;20650;-76
2021/06/20 11:07:51;;;;;;;14.10;12.73;;;41.90;1.00;;;;;;5063246;28;20485;-75
2021/06/20 11:10:27;;;;;;;13.87;12.10;;;42.40;1.00;;;;;;5065027;28;23082;-79
2021/06/20 11:12:58;;;;;;;13.77;12.40;;;43.10;1.00;;;;;;5067345;28;20555;-77
2021/06/20 11:15:26;;;;;;;14.00;12.60;;;43.60;1.00;;;;;;5062668;28;20426;-76
2021/06/20 11:18:03;;;;;;;14.63;13.00;;;43.70;1.00;;;;;;5066326;28;20447;-77
2021/06/20 11:20:31;;;;;;;14.00;11.70;;;43.80;1.00;;;;;;5067923;28;20466;-77
2021/06/20 11:22:58;;;;;;;15.43;12.40;;;42.90;1.00;;;;;;5058011;28;20544;-79
2021/06/20 11:25:25;;;;;;;13.73;12.10;;;42.60;1.00;;;;;;5049791;28;21060;-76
2021/06/20 11:27:52;;;;;;;13.60;12.27;;;42.70;1.00;;;;;;5066041;28;20422;-77
2021/06/20 11:30:21;;;;;;;12.57;11.37;;;42.90;1.00;;;;;;5066181;28;20461;-77
2021/06/20 11:32:48;;;;;;;14.13;11.17;;;42.70;1.00;;;;;;5061648;28;20435;-77
2021/06/20 11:35:16;;;;;;;16.10;11.10;;;43.00;1.00;;;;;;5069018;28;20434;-75
2021/06/20 11:37:45;;;;;;;11.87;10.67;;;43.10;1.00;;;;;;5067259;28;20460;-77
2021/06/20 11:40:15;;;;;;;14.27;12.77;;;43.00;1.00;;;;;;5064538;28;20466;-75
2021/06/20 11:42:43;;;;;;;13.47;11.20;;;43.20;1.00;;;;;;5066650;28;20443;-77
2021/06/20 11:45:12;;;;;;;14.07;10.70;;;43.80;1.00;;;;;;5062681;28;20484;-78
2021/06/20 11:47:41;;;;;;;11.47;10.37;;;44.00;1.00;;;;;;5063441;28;20468;-79
2021/06/20 11:50:17;;;;;;;13.23;10.33;;;43.80;1.00;;;;;;5062326;28;20454;-76
2021/06/20 11:52:45;;;;;;;11.57;10.43;;;42.80;1.00;;;;;;5064070;28;20690;-77
2021/06/20 11:55:15;;;;;;;12.30;11.20;;;42.80;1.00;;;;;;5043958;28;20454;-77
2021/06/20 11:57:41;;;;;;;13.20;10.80;;;43.10;1.00;;;;;;5069333;28;20818;-77
2021/06/20 12:00:11;;;;;;;13.00;10.53;;;42.70;1.00;;;;;;5066057;28;20484;-76
2021/06/20 12:02:38;;;;;;;11.70;10.30;;;43.00;1.00;;;;;;5066779;28;21677;-78
2021/06/20 12:05:07;;;;;;;12.00;9.77;;;43.60;1.00;;;;;;5064331;28;21577;-76
2021/06/20 12:07:34;;;;;;;11.13;9.43;;;43.90;1.00;;;;;;5066208;28;20467;-77
2021/06/20 12:10:01;;;;;;;10.80;9.70;;;43.90;1.00;;;;;;5067331;28;20532;-77
2021/06/20 12:12:28;;;;;;;11.97;9.73;;;44.10;1.00;;;;;;5063367;28;20490;-76
2021/06/20 12:14:59;;;;;;;10.97;9.97;;;44.40;1.00;;;;;;5066414;28;20497;-75
2021/06/20 12:17:28;;;;;;;14.20;10.60;;;42.70;1.00;;;;;;5065611;28;20470;-75
2021/06/20 12:19:56;;;;;;;11.83;10.77;;;42.30;1.00;;;;;;5073119;28;20568;-76
2021/06/20 12:22:24;;;;;;;14.60;10.40;;;41.70;1.00;;;;;;5072301;28;20451;-77
2021/06/20 12:25:01;;;;;;;12.47;10.77;;;40.60;1.00;;;;;;5070052;28;20434;-75
2021/06/20 12:27:31;;;;;;;12.40;11.10;;;40.50;1.00;;;;;;5074241;28;20458;-75
2021/06/20 12:29:58;;;;;;;16.03;9.90;;;41.80;1.00;;;;;;5069287;28;21169;-76
2021/06/20 12:32:25;;;;;;;11.73;10.53;;;42.90;1.00;;;;;;5074105;28;21047;-76
2021/06/20 12:34:55;;;;;;;10.47;9.40;;;43.90;1.00;;;;;;5065273;28;20464;-76
2021/06/20 12:37:24;;;;;;;20.17;11.37;;;44.50;1.00;;;;;;5067420;28;23887;-76
2021/06/20 12:39:52;;;;;;;11.10;8.50;;;45.20;1.00;;;;;;5072466;28;20473;-78
2021/06/20 12:42:19;;;;;;;10.47;9.00;;;44.40;1.00;;;;;;5077936;28;20624;-77
2021/06/20 12:44:49;;;;;;;10.37;9.37;;;42.70;1.00;;;;;;5075105;28;20442;-77